ESSD/BLE METAR and TAF weather

Enter ICAO airport designator
Station Type Date Time Source
ESSD METAR 2021/01/17 19:20 UTC NOAA

ESSD 171920Z AUTO 20008KT 9999 SCT025/// M04/M06 Q1014


Station Type Date Time Source
ESSD Decoded METAR 2021/01/17 19:20 UTC NOAA

Borlange, Sweden (ESSD) 60-26N 015-31E 0M
Jan 17, 2021 - 02:20 PM EST / 2021.01.17 1920 UTC
Wind: from the SSW (200 degrees) at 9 MPH (8 KT):0
Visibility: greater than 7 mile(s):0
Sky conditions: partly cloudy
Temperature: 24 F (-4 C)
Windchill: 14 F (-10 C):1
Dew Point: 21 F (-6 C)
Relative Humidity: 85%
Pressure (altimeter): 29.94 in. Hg (1014 hPa)
ob: ESSD 171920Z AUTO 20008KT 9999 SCT025/// M04/M06 Q1014
cycle: 19

Station Type Date Time Source
ESSD TAF 2018/05/02 04:48 UTC NOAA

TAF TAF ESSD 020320Z 0204/0412 27008KT 9999 BKN019 PROB40 0204/0209 BKN006

Example: see airport list